createdAt,value
2023-03-25T00:02:24.766Z,38.50
2023-03-25T00:04:52.998Z,39.58
2023-03-25T00:07:21.348Z,39.10
2023-03-25T00:09:49.648Z,38.63
2023-03-25T00:12:19.588Z,37.75
2023-03-25T00:14:54.879Z,38.35
2023-03-25T00:17:23.668Z,37.70
2023-03-25T00:19:52.114Z,38.08
2023-03-25T00:22:20.826Z,38.03
2023-03-25T00:24:49.051Z,38.30
2023-03-25T00:27:17.626Z,38.22
2023-03-25T00:29:46.005Z,36.17
2023-03-25T00:32:16.136Z,36.50
2023-03-25T00:34:47.582Z,36.17
2023-03-25T00:37:17.795Z,37.67
2023-03-25T00:39:46.283Z,36.95
2023-03-25T00:42:17.073Z,36.25
2023-03-25T00:44:45.224Z,37.22
2023-03-25T00:47:18.380Z,34.70
2023-03-25T00:49:47.973Z,35.47
2023-03-25T00:52:16.857Z,34.22
2023-03-25T00:54:45.991Z,36.08
2023-03-25T00:57:14.155Z,33.35
2023-03-25T00:59:42.281Z,33.65
2023-03-25T01:02:10.542Z,34.35
2023-03-25T01:04:41.519Z,33.97
2023-03-25T01:07:12.727Z,33.65
2023-03-25T01:09:41.665Z,32.60
2023-03-25T01:12:09.927Z,34.85
2023-03-25T01:14:38.111Z,32.60
2023-03-25T01:17:06.378Z,32.72
2023-03-25T01:19:34.577Z,32.03
2023-03-25T01:22:02.780Z,32.22
2023-03-25T01:24:32.561Z,31.52
2023-03-25T01:27:00.776Z,32.28
2023-03-25T01:29:30.388Z,31.92
2023-03-25T01:31:58.998Z,32.72
2023-03-25T01:34:27.212Z,31.13
2023-03-25T01:36:55.983Z,31.48
2023-03-25T01:39:24.398Z,31.63
2023-03-25T01:41:55.377Z,31.13
2023-03-25T01:45:01.528Z,30.38
2023-03-25T01:47:29.690Z,29.88
2023-03-25T01:49:57.929Z,30.95
2023-03-25T01:52:26.764Z,29.35
2023-03-25T01:54:55.290Z,30.27
2023-03-25T01:57:26.011Z,28.63
2023-03-25T01:59:55.028Z,29.45
2023-03-25T02:02:25.293Z,28.58
2023-03-25T02:05:02.498Z,27.48
2023-03-25T02:07:32.841Z,27.05
2023-03-25T02:10:02.271Z,27.30
2023-03-25T02:12:31.952Z,27.15
2023-03-25T02:15:01.422Z,28.15
2023-03-25T02:17:33.076Z,26.77
2023-03-25T02:20:13.943Z,27.55
2023-03-25T02:23:07.713Z,27.35
2023-03-25T02:26:14.774Z,26.75
2023-03-25T02:28:47.469Z,25.63
2023-03-25T02:31:25.589Z,26.17
2023-03-25T02:34:15.472Z,27.15
2023-03-25T02:37:22.893Z,27.45
2023-03-25T02:39:53.443Z,25.17
2023-03-25T02:42:24.302Z,26.60
2023-03-25T02:44:55.377Z,24.77
2023-03-25T02:47:24.461Z,24.52
2023-03-25T02:49:54.545Z,25.38
2023-03-25T02:52:24.985Z,25.00
2023-03-25T02:54:58.002Z,23.58
2023-03-25T02:57:28.719Z,25.88
2023-03-25T02:59:57.168Z,23.60
2023-03-25T03:02:26.726Z,23.83
2023-03-25T03:04:56.070Z,24.23
2023-03-25T03:07:25.600Z,22.77
2023-03-25T03:10:01.984Z,23.65
2023-03-25T03:12:41.271Z,22.63
2023-03-25T03:15:18.130Z,23.08
2023-03-25T03:17:50.406Z,22.73
2023-03-25T03:20:20.232Z,22.77
2023-03-25T03:22:52.979Z,22.48
2023-03-25T03:25:25.948Z,22.25
2023-03-25T03:27:56.593Z,21.85
2023-03-25T03:30:29.988Z,21.15
2023-03-25T03:33:01.402Z,22.30
2023-03-25T03:35:31.815Z,21.45
2023-03-25T03:38:01.686Z,21.05
2023-03-25T03:40:31.539Z,20.98
2023-03-25T03:43:01.079Z,21.35
2023-03-25T03:45:32.020Z,20.92
2023-03-25T03:48:01.729Z,21.23
2023-03-25T03:50:31.682Z,21.75
2023-03-25T03:53:03.201Z,20.90
2023-03-25T03:55:37.853Z,20.88
2023-03-25T03:58:08.218Z,20.17
2023-03-25T04:00:37.861Z,20.08
2023-03-25T04:03:09.008Z,19.17
2023-03-25T04:05:38.263Z,19.02
2023-03-25T04:08:11.945Z,19.95
2023-03-25T04:10:45.636Z,20.20
2023-03-25T04:13:15.051Z,19.80
2023-03-25T04:15:43.330Z,18.27
2023-03-25T04:18:12.178Z,19.63
2023-03-25T04:20:45.029Z,19.17
2023-03-25T04:23:16.239Z,18.60
2023-03-25T04:25:47.854Z,18.52
2023-03-25T04:28:18.220Z,19.45
2023-03-25T04:30:46.411Z,18.85
2023-03-25T04:33:14.785Z,16.90
2023-03-25T04:35:42.999Z,17.33
2023-03-25T04:38:11.934Z,18.00
2023-03-25T04:40:40.933Z,17.77
2023-03-25T04:43:10.534Z,17.88
2023-03-25T04:45:38.736Z,18.23
2023-03-25T04:48:07.188Z,17.33
2023-03-25T04:50:35.531Z,18.02
2023-03-25T04:53:03.632Z,16.65
2023-03-25T04:55:31.782Z,18.55
2023-03-25T04:57:59.893Z,16.85
2023-03-25T05:00:29.463Z,16.88
2023-03-25T05:03:02.012Z,17.20
2023-03-25T05:05:30.409Z,16.55
2023-03-25T05:07:59.195Z,16.15
2023-03-25T05:10:29.662Z,16.73
2023-03-25T05:12:59.828Z,15.98
2023-03-25T05:15:30.586Z,16.45
2023-03-25T05:17:58.742Z,15.77
2023-03-25T05:20:26.896Z,15.13
2023-03-25T05:22:57.544Z,15.75
2023-03-25T05:25:25.736Z,15.98
2023-03-25T05:27:54.476Z,15.27
2023-03-25T05:30:22.625Z,14.27
2023-03-25T05:32:56.590Z,14.65
2023-03-25T05:35:26.763Z,15.20
2023-03-25T05:37:55.968Z,15.20
2023-03-25T05:40:25.441Z,16.08
2023-03-25T05:42:54.741Z,17.90
2023-03-25T05:45:22.970Z,17.48
2023-03-25T05:47:52.550Z,17.75
2023-03-25T05:50:21.765Z,16.10
2023-03-25T05:52:51.916Z,18.05
2023-03-25T05:55:21.502Z,17.95
2023-03-25T05:57:49.778Z,20.08
2023-03-25T06:00:19.274Z,16.85
2023-03-25T06:02:48.894Z,16.80
2023-03-25T06:05:23.564Z,17.38
2023-03-25T06:07:52.196Z,23.13
2023-03-25T06:10:21.012Z,21.33
2023-03-25T06:12:53.141Z,20.10
2023-03-25T06:15:29.057Z,32.22
2023-03-25T06:17:57.645Z,33.03
2023-03-25T06:20:27.295Z,28.05
2023-03-25T06:22:55.638Z,33.35
2023-03-25T06:25:24.375Z,28.48
2023-03-25T06:27:52.586Z,28.88
2023-03-25T06:30:21.294Z,33.47
2023-03-25T06:32:50.840Z,53.60
2023-03-25T06:35:20.295Z,36.88
2023-03-25T06:37:50.505Z,37.40
2023-03-25T06:40:31.131Z,47.20
2023-03-25T06:43:02.550Z,43.92
2023-03-25T06:46:02.541Z,42.60
2023-03-25T06:48:53.785Z,43.63
2023-03-25T06:51:23.912Z,52.47
2023-03-25T06:53:53.626Z,49.20
2023-03-25T06:56:21.910Z,45.85
2023-03-25T06:58:50.069Z,44.90
2023-03-25T07:01:18.244Z,48.90
2023-03-25T07:03:46.445Z,47.20
2023-03-25T07:06:17.193Z,50.08
2023-03-25T07:08:45.339Z,47.40
2023-03-25T07:11:15.181Z,46.50
2023-03-25T07:13:43.431Z,47.08
2023-03-25T07:16:11.869Z,45.38
2023-03-25T07:18:42.877Z,45.40
2023-03-25T07:21:10.981Z,43.65
2023-03-25T07:23:40.780Z,41.80
2023-03-25T07:26:09.084Z,45.83
2023-03-25T07:28:39.270Z,44.33
2023-03-25T07:31:09.102Z,41.78
2023-03-25T07:33:37.241Z,41.38
2023-03-25T07:36:06.322Z,37.03
2023-03-25T07:38:34.466Z,38.85
2023-03-25T07:41:06.590Z,38.22
2023-03-25T07:43:34.862Z,37.33
2023-03-25T07:46:14.505Z,37.78
2023-03-25T07:48:44.097Z,34.10
2023-03-25T07:51:12.612Z,34.90
2023-03-25T07:53:44.582Z,37.00
2023-03-25T07:56:12.801Z,34.03
2023-03-25T07:58:42.005Z,37.80
2023-03-25T08:01:10.214Z,34.30
2023-03-25T08:03:40.137Z,33.67
2023-03-25T08:06:09.261Z,31.85
2023-03-25T08:08:37.452Z,32.65
2023-03-25T08:11:06.212Z,33.13
2023-03-25T08:13:34.435Z,31.10
2023-03-25T08:16:02.626Z,32.78
2023-03-25T08:18:31.284Z,31.95
2023-03-25T08:21:00.780Z,30.30
2023-03-25T08:23:29.119Z,29.88
2023-03-25T08:25:57.278Z,29.13
2023-03-25T08:28:27.080Z,31.00
2023-03-25T08:30:55.961Z,29.90
2023-03-25T08:33:34.062Z,29.92
2023-03-25T08:36:04.198Z,28.58
2023-03-25T08:38:34.859Z,30.80
2023-03-25T08:41:03.321Z,27.88
2023-03-25T08:43:31.378Z,26.55
2023-03-25T08:45:59.667Z,28.05
2023-03-25T08:48:27.995Z,26.02
2023-03-25T08:50:56.264Z,26.17
2023-03-25T08:53:26.070Z,26.35
2023-03-25T08:55:54.416Z,25.70
2023-03-25T08:58:22.590Z,27.23
2023-03-25T09:00:53.698Z,25.55
2023-03-25T09:03:22.098Z,27.95
2023-03-25T09:05:50.467Z,24.77
2023-03-25T09:08:18.818Z,25.98
2023-03-25T09:10:48.434Z,23.55
2023-03-25T09:13:16.732Z,24.25
2023-03-25T09:15:44.892Z,23.55
2023-03-25T09:18:13.009Z,23.02
2023-03-25T09:20:41.528Z,23.65
2023-03-25T09:23:09.907Z,22.45
2023-03-25T09:25:39.351Z,22.98
2023-03-25T09:28:09.138Z,23.42
2023-03-25T09:30:37.307Z,21.75
2023-03-25T09:33:06.016Z,20.77
2023-03-25T09:35:34.283Z,22.02
2023-03-25T09:38:02.644Z,21.48
2023-03-25T09:40:31.950Z,23.90
2023-03-25T09:43:12.404Z,21.10
2023-03-25T09:45:41.617Z,19.70
2023-03-25T09:48:18.248Z,21.25
2023-03-25T09:50:46.468Z,20.55
2023-03-25T09:53:18.408Z,21.02
2023-03-25T09:55:46.785Z,21.13
2023-03-25T09:58:28.018Z,21.73
2023-03-25T10:00:58.046Z,19.08
2023-03-25T10:03:28.616Z,18.98
2023-03-25T10:06:02.957Z,19.55
2023-03-25T10:08:36.160Z,18.85
2023-03-25T10:11:08.788Z,19.48
2023-03-25T10:13:42.771Z,18.13
2023-03-25T10:16:15.756Z,18.30
2023-03-25T10:18:49.321Z,18.20
2023-03-25T10:21:20.060Z,17.00
2023-03-25T10:23:51.096Z,19.02
2023-03-25T10:26:21.257Z,17.23
2023-03-25T10:28:53.877Z,18.33
2023-03-25T10:31:23.932Z,18.55
2023-03-25T10:33:54.265Z,17.30
2023-03-25T10:36:25.022Z,17.42
2023-03-25T10:38:55.618Z,16.33
2023-03-25T10:41:26.598Z,16.90
2023-03-25T10:43:56.173Z,17.58
2023-03-25T10:46:28.621Z,18.92
2023-03-25T10:48:56.942Z,16.70
2023-03-25T10:51:27.956Z,15.93
2023-03-25T10:53:56.531Z,15.35
2023-03-25T10:56:26.847Z,16.48
2023-03-25T10:58:57.191Z,15.63
2023-03-25T11:01:33.808Z,17.42
2023-03-25T11:04:01.953Z,14.80
2023-03-25T11:06:31.111Z,15.23
2023-03-25T11:09:07.137Z,15.48
2023-03-25T11:11:35.684Z,16.52
2023-03-25T11:14:05.305Z,13.90
2023-03-25T11:16:34.060Z,14.68
2023-03-25T11:19:02.551Z,16.88
2023-03-25T11:21:33.037Z,14.43
2023-03-25T11:24:01.967Z,14.38
2023-03-25T11:26:33.870Z,14.00
2023-03-25T11:29:02.940Z,13.82
2023-03-25T11:31:35.093Z,16.08
2023-03-25T11:34:06.433Z,13.52
2023-03-25T11:36:34.878Z,14.13
2023-03-25T11:39:04.540Z,13.43
2023-03-25T11:41:33.712Z,13.90
2023-03-25T11:44:02.437Z,13.38
2023-03-25T11:46:30.996Z,13.82
2023-03-25T11:49:02.946Z,12.68
2023-03-25T11:51:31.508Z,12.80
2023-03-25T11:54:00.856Z,13.98
2023-03-25T11:56:31.556Z,13.38
2023-03-25T11:58:59.976Z,13.70
2023-03-25T12:01:30.921Z,12.70
2023-03-25T12:04:17.128Z,11.77
2023-03-25T12:06:59.559Z,11.85
2023-03-25T12:09:30.439Z,11.43
2023-03-25T12:12:18.791Z,11.55
2023-03-25T12:14:52.640Z,11.48
2023-03-25T12:17:25.720Z,11.73
2023-03-25T12:19:59.491Z,11.65
2023-03-25T12:22:35.371Z,11.85
2023-03-25T12:25:13.528Z,12.07
2023-03-25T12:27:49.156Z,10.27
2023-03-25T12:30:25.059Z,10.95
2023-03-25T12:32:56.030Z,11.25
2023-03-25T12:35:30.601Z,10.70
2023-03-25T12:38:12.258Z,10.65
2023-03-25T12:40:51.289Z,10.15
2023-03-25T12:43:21.662Z,10.57
2023-03-25T12:45:55.673Z,10.55
2023-03-25T12:48:41.788Z,9.55
2023-03-25T12:51:16.232Z,10.20
2023-03-25T12:53:49.959Z,9.93
2023-03-25T12:56:28.955Z,9.68
2023-03-25T12:59:06.887Z,10.23
2023-03-25T13:01:38.535Z,9.73
2023-03-25T13:04:22.843Z,10.25
2023-03-25T13:06:58.817Z,9.43
2023-03-25T13:09:27.997Z,9.10
2023-03-25T13:11:57.153Z,9.65
2023-03-25T13:14:26.523Z,8.82
2023-03-25T13:16:55.836Z,8.95
2023-03-25T13:19:24.680Z,8.75
2023-03-25T13:21:55.601Z,8.77
2023-03-25T13:24:26.177Z,8.27
2023-03-25T13:26:55.620Z,8.70
2023-03-25T13:29:27.787Z,9.07
2023-03-25T13:31:56.104Z,9.10
2023-03-25T13:34:27.390Z,8.48
2023-03-25T13:37:05.271Z,8.88
2023-03-25T13:39:41.060Z,8.77
2023-03-25T13:42:13.501Z,8.70
2023-03-25T13:44:42.661Z,8.80
2023-03-25T13:47:18.086Z,7.78
2023-03-25T13:49:48.280Z,7.88
2023-03-25T13:52:18.404Z,7.95
2023-03-25T13:54:47.964Z,7.93
2023-03-25T13:57:42.723Z,8.35
2023-03-25T14:00:25.197Z,7.95
2023-03-25T14:03:25.427Z,7.38
2023-03-25T14:06:20.657Z,7.50
2023-03-25T14:09:22.192Z,7.40
2023-03-25T14:11:52.572Z,7.40
2023-03-25T14:14:22.297Z,7.45
2023-03-25T14:16:51.466Z,7.20
2023-03-25T14:19:22.479Z,7.72
2023-03-25T14:21:51.216Z,7.10
2023-03-25T14:24:21.772Z,7.07
2023-03-25T14:26:52.621Z,6.90
2023-03-25T14:29:31.967Z,7.20
2023-03-25T14:32:02.200Z,7.20
2023-03-25T14:34:30.484Z,6.30
2023-03-25T14:37:19.085Z,6.93
2023-03-25T14:39:47.239Z,6.47
2023-03-25T14:42:58.411Z,7.10
2023-03-25T14:45:59.369Z,6.55
2023-03-25T14:48:31.679Z,6.30
2023-03-25T14:51:39.934Z,6.47
2023-03-25T14:54:19.740Z,6.75
2023-03-25T14:56:53.596Z,6.57
2023-03-25T14:59:25.082Z,5.93
2023-03-25T15:01:53.457Z,6.60
2023-03-25T15:04:26.424Z,6.68
2023-03-25T15:06:54.779Z,6.47
2023-03-25T15:09:22.927Z,6.65
2023-03-25T15:11:57.610Z,6.50
2023-03-25T15:14:29.436Z,6.25
2023-03-25T15:17:02.851Z,6.28
2023-03-25T15:19:31.055Z,6.53
2023-03-25T15:22:18.928Z,6.07
2023-03-25T15:24:55.630Z,6.20
2023-03-25T15:27:31.308Z,7.30
2023-03-25T15:30:04.581Z,5.95
2023-03-25T15:32:38.443Z,5.45
2023-03-25T15:35:38.323Z,5.50
2023-03-25T15:38:38.948Z,6.20
2023-03-25T15:41:17.261Z,5.68
2023-03-25T15:44:18.339Z,5.43
2023-03-25T15:47:04.491Z,5.80
2023-03-25T15:49:42.556Z,5.30
2023-03-25T15:52:16.588Z,5.53
2023-03-25T15:54:45.464Z,5.32
2023-03-25T15:57:20.931Z,5.30
2023-03-25T15:59:52.783Z,5.10
2023-03-25T16:02:27.894Z,5.20
2023-03-25T16:04:56.368Z,5.18
2023-03-25T16:07:25.517Z,5.20
2023-03-25T16:09:55.485Z,5.30
2023-03-25T16:12:24.720Z,5.00
2023-03-25T16:14:53.149Z,5.32
2023-03-25T16:17:22.588Z,4.63
2023-03-25T16:19:53.047Z,5.15
2023-03-25T16:22:23.239Z,5.20
2023-03-25T16:24:52.298Z,5.05
2023-03-25T16:27:22.652Z,4.90
2023-03-25T16:29:52.804Z,5.00
2023-03-25T16:32:22.334Z,4.72
2023-03-25T16:34:53.938Z,4.88
2023-03-25T16:37:22.418Z,4.85
2023-03-25T16:39:52.825Z,4.53
2023-03-25T16:42:25.656Z,4.80
2023-03-25T16:44:54.177Z,4.60
2023-03-25T16:47:22.499Z,4.75
2023-03-25T16:49:53.638Z,5.07
2023-03-25T16:52:24.741Z,4.40
2023-03-25T16:55:15.054Z,4.93
2023-03-25T16:57:43.305Z,3.88
2023-03-25T17:00:18.193Z,31.05
2023-03-25T17:02:48.634Z,48.15
2023-03-25T17:05:19.947Z,35.13
2023-03-25T17:07:49.573Z,42.67
2023-03-25T17:10:20.803Z,39.35
2023-03-25T17:12:52.230Z,38.67
2023-03-25T17:15:21.123Z,42.60
2023-03-25T17:17:51.718Z,43.35
2023-03-25T17:20:23.044Z,41.80
2023-03-25T17:23:09.405Z,41.08
2023-03-25T17:25:38.331Z,40.45
2023-03-25T17:28:09.491Z,47.88
2023-03-25T17:30:42.844Z,46.85
2023-03-25T17:33:11.947Z,51.38
2023-03-25T17:35:42.392Z,48.95
2023-03-25T17:38:14.553Z,57.95
2023-03-25T17:40:42.717Z,58.03
2023-03-25T17:43:18.704Z,51.10
2023-03-25T17:45:47.227Z,49.80
2023-03-25T17:48:16.243Z,54.35
2023-03-25T17:50:52.982Z,48.63
2023-03-25T17:53:21.439Z,45.50
2023-03-25T17:55:50.105Z,45.25
2023-03-25T17:58:18.554Z,60.70
2023-03-25T18:00:47.800Z,67.13
2023-03-25T18:03:16.974Z,60.75
2023-03-25T18:05:45.828Z,68.93
2023-03-25T18:08:15.393Z,71.30
2023-03-25T18:10:43.769Z,80.97
2023-03-25T18:13:12.640Z,82.10
2023-03-25T18:15:41.347Z,79.18
2023-03-25T18:18:11.711Z,85.60
2023-03-25T18:20:39.938Z,83.80
2023-03-25T18:23:08.195Z,80.75
2023-03-25T18:25:37.985Z,82.25
2023-03-25T18:28:06.470Z,78.35
2023-03-25T18:30:38.587Z,73.63
2023-03-25T18:33:06.896Z,74.15
2023-03-25T18:35:35.150Z,72.25
2023-03-25T18:38:04.513Z,73.43
2023-03-25T18:40:34.754Z,67.15
2023-03-25T18:43:04.470Z,65.93
2023-03-25T18:45:32.952Z,63.92
2023-03-25T18:48:01.308Z,63.20
2023-03-25T18:50:30.749Z,67.97
2023-03-25T18:52:58.977Z,63.17
2023-03-25T18:55:28.064Z,64.22
2023-03-25T18:57:56.236Z,59.72
2023-03-25T19:00:27.907Z,62.03
2023-03-25T19:02:56.572Z,57.28
2023-03-25T19:05:25.444Z,59.47
2023-03-25T19:07:53.657Z,59.22
2023-03-25T19:10:22.876Z,53.47
2023-03-25T19:12:51.432Z,53.80
2023-03-25T19:15:20.454Z,55.53
2023-03-25T19:17:50.007Z,55.08
2023-03-25T19:20:19.189Z,51.85
2023-03-25T19:22:47.213Z,49.40
2023-03-25T19:25:15.416Z,50.70
2023-03-25T19:27:43.895Z,44.80
2023-03-25T19:30:13.085Z,81.00
2023-03-25T19:32:42.975Z,60.03
2023-03-25T19:35:13.061Z,56.38
2023-03-25T19:37:47.591Z,54.35
2023-03-25T19:40:17.088Z,55.58
2023-03-25T19:42:45.387Z,52.78
2023-03-25T19:45:13.960Z,54.65
2023-03-25T19:47:43.020Z,55.13
2023-03-25T19:50:13.029Z,52.60
2023-03-25T19:52:43.362Z,51.40
2023-03-25T19:55:11.980Z,54.10
2023-03-25T19:57:40.830Z,53.40
2023-03-25T20:00:12.617Z,51.80
2023-03-25T20:02:41.411Z,51.50
2023-03-25T20:05:11.710Z,56.65
2023-03-25T20:07:41.822Z,47.00
2023-03-25T20:10:19.467Z,46.40
2023-03-25T20:12:48.595Z,46.08
2023-03-25T20:15:17.530Z,47.25
2023-03-25T20:17:45.798Z,44.92
2023-03-25T20:20:14.849Z,48.53
2023-03-25T20:22:44.703Z,46.05
2023-03-25T20:25:13.340Z,44.03
2023-03-25T20:27:42.025Z,42.90
2023-03-25T20:30:11.344Z,42.63
2023-03-25T20:32:42.517Z,45.53
2023-03-25T20:35:13.163Z,45.85
2023-03-25T20:37:41.496Z,44.90
2023-03-25T20:40:12.905Z,45.83
2023-03-25T20:42:41.748Z,42.63
2023-03-25T20:45:12.115Z,43.42
2023-03-25T20:47:40.443Z,40.70
2023-03-25T20:50:09.185Z,40.72
2023-03-25T20:52:38.156Z,40.95
2023-03-25T20:55:07.348Z,41.67
2023-03-25T20:57:37.337Z,41.22
2023-03-25T21:00:06.393Z,41.35
2023-03-25T21:02:34.729Z,39.42
2023-03-25T21:05:03.738Z,41.47
2023-03-25T21:07:35.305Z,40.03
2023-03-25T21:10:03.586Z,39.80
2023-03-25T21:12:42.442Z,43.22
2023-03-25T21:15:13.249Z,38.58
2023-03-25T21:17:42.245Z,41.20
2023-03-25T21:20:11.878Z,38.13
2023-03-25T21:22:43.313Z,37.90
2023-03-25T21:25:13.153Z,36.35
2023-03-25T21:27:42.479Z,36.50
2023-03-25T21:30:13.416Z,35.80
2023-03-25T21:32:41.884Z,34.88
2023-03-25T21:35:10.361Z,36.08
2023-03-25T21:37:41.358Z,34.53
2023-03-25T21:40:11.664Z,35.78
2023-03-25T21:42:41.376Z,34.90
2023-03-25T21:45:10.851Z,35.85
2023-03-25T21:47:41.394Z,34.20
2023-03-25T21:50:11.222Z,33.42
2023-03-25T21:52:43.132Z,32.83
2023-03-25T21:55:11.579Z,35.65
2023-03-25T21:57:40.030Z,33.97
2023-03-25T22:00:09.961Z,31.40
2023-03-25T22:02:43.574Z,34.53
2023-03-25T22:05:12.251Z,32.72
2023-03-25T22:07:40.867Z,31.50
2023-03-25T22:10:10.063Z,32.05
2023-03-25T22:12:38.229Z,31.48
2023-03-25T22:15:07.579Z,32.53
2023-03-25T22:17:35.938Z,32.80
2023-03-25T22:20:06.937Z,30.85
2023-03-25T22:22:35.208Z,31.08
2023-03-25T22:25:04.168Z,31.83
2023-03-25T22:27:32.668Z,29.27
2023-03-25T22:30:01.804Z,29.50
2023-03-25T22:32:30.056Z,32.78
2023-03-25T22:34:58.236Z,26.50
2023-03-25T22:37:27.772Z,30.80
2023-03-25T22:39:55.961Z,28.40
2023-03-25T22:42:25.842Z,27.80
2023-03-25T22:44:53.966Z,27.73
2023-03-25T22:47:22.046Z,27.08
2023-03-25T22:49:50.167Z,26.70
2023-03-25T22:52:18.329Z,27.50
2023-03-25T22:54:48.004Z,26.75
2023-03-25T22:57:16.288Z,26.85
2023-03-25T22:59:44.429Z,27.27
2023-03-25T23:02:14.615Z,24.48
2023-03-25T23:04:42.762Z,25.50
2023-03-25T23:07:10.964Z,24.63
2023-03-25T23:09:45.228Z,23.48
2023-03-25T23:12:15.701Z,25.85
2023-03-25T23:14:48.916Z,22.70
2023-03-25T23:17:17.207Z,25.20
2023-03-25T23:19:45.588Z,25.67
2023-03-25T23:22:13.702Z,24.42
2023-03-25T23:24:42.447Z,24.67
2023-03-25T23:27:11.666Z,22.70
2023-03-25T23:29:41.816Z,25.80
2023-03-25T23:32:10.251Z,23.02
2023-03-25T23:34:40.316Z,23.80
2023-03-25T23:37:09.265Z,21.73
2023-03-25T23:39:37.584Z,23.75
2023-03-25T23:42:07.824Z,22.63
2023-03-25T23:44:36.119Z,20.83
2023-03-25T23:47:06.232Z,23.88
2023-03-25T23:49:38.540Z,22.50
2023-03-25T23:52:11.120Z,19.67
2023-03-25T23:54:39.995Z,21.05
2023-03-25T23:57:08.210Z,21.02
2023-03-25T23:59:36.480Z,21.65
